sensor_id;sensor_type;location;lat;lon;timestamp;pressure;altitude;pressure_sealevel;temperature;humidity
12203;BME280;6164;42.178;24.622;2023-02-14T00:02:14;101073.66;;;2.20;92.80
12203;BME280;6164;42.178;24.622;2023-02-14T00:04:42;101085.13;;;2.16;92.65
12203;BME280;6164;42.178;24.622;2023-02-14T00:07:11;101081.38;;;2.22;93.40
12203;BME280;6164;42.178;24.622;2023-02-14T00:09:37;101076.34;;;2.19;93.09
12203;BME280;6164;42.178;24.622;2023-02-14T00:12:04;101075.41;;;2.20;92.80
12203;BME280;6164;42.178;24.622;2023-02-14T00:14:31;101066.97;;;2.15;92.29
12203;BME280;6164;42.178;24.622;2023-02-14T00:17:15;101071.75;;;2.07;92.95
12203;BME280;6164;42.178;24.622;2023-02-14T00:19:43;101068.00;;;2.12;92.53
12203;BME280;6164;42.178;24.622;2023-02-14T00:22:09;101077.66;;;2.10;92.52
12203;BME280;6164;42.178;24.622;2023-02-14T00:24:36;101077.16;;;2.19;91.94
12203;BME280;6164;42.178;24.622;2023-02-14T00:27:02;101083.47;;;2.15;91.36
12203;BME280;6164;42.178;24.622;2023-02-14T00:29:29;101088.19;;;2.24;91.54
12203;BME280;6164;42.178;24.622;2023-02-14T00:31:56;101089.72;;;2.28;90.83
12203;BME280;6164;42.178;24.622;2023-02-14T00:34:23;101085.13;;;2.16;90.80
12203;BME280;6164;42.178;24.622;2023-02-14T00:36:51;101075.41;;;2.20;91.64
12203;BME280;6164;42.178;24.622;2023-02-14T00:39:17;101069.25;;;2.21;91.06
12203;BME280;6164;42.178;24.622;2023-02-14T00:41:44;101069.13;;;2.24;90.59
12203;BME280;6164;42.178;24.622;2023-02-14T00:44:11;101069.88;;;2.26;90.15
12203;BME280;6164;42.178;24.622;2023-02-14T00:46:38;101072.47;;;2.26;89.42
12203;BME280;6164;42.178;24.622;2023-02-14T00:49:04;101068.97;;;2.27;89.35
12203;BME280;6164;42.178;24.622;2023-02-14T00:51:31;101080.19;;;2.27;88.36
12203;BME280;6164;42.178;24.622;2023-02-14T00:53:59;101076.34;;;2.19;87.63
12203;BME280;6164;42.178;24.622;2023-02-14T00:56:25;101082.38;;;2.19;87.34
12203;BME280;6164;42.178;24.622;2023-02-14T00:58:52;101070.91;;;2.06;87.38
12203;BME280;6164;42.178;24.622;2023-02-14T01:01:19;101074.38;;;1.90;87.90
12203;BME280;6164;42.178;24.622;2023-02-14T01:03:46;101071.88;;;1.71;89.22
12203;BME280;6164;42.178;24.622;2023-02-14T01:06:13;101073.00;;;1.66;90.44
12203;BME280;6164;42.178;24.622;2023-02-14T01:08:39;101065.19;;;1.66;91.35
12203;BME280;6164;42.178;24.622;2023-02-14T01:11:08;101059.97;;;1.66;91.97
12203;BME280;6164;42.178;24.622;2023-02-14T01:13:35;101057.31;;;1.67;91.62
12203;BME280;6164;42.178;24.622;2023-02-14T01:16:04;101051.41;;;1.64;91.66
12203;BME280;6164;42.178;24.622;2023-02-14T01:18:31;101051.31;;;1.65;91.96
12203;BME280;6164;42.178;24.622;2023-02-14T01:21:07;101047.81;;;1.66;91.90
12203;BME280;6164;42.178;24.622;2023-02-14T01:23:34;101039.84;;;1.69;91.16
12203;BME280;6164;42.178;24.622;2023-02-14T01:26:02;101040.72;;;1.70;91.27
12203;BME280;6164;42.178;24.622;2023-02-14T01:28:30;101038.91;;;1.70;91.31
12203;BME280;6164;42.178;24.622;2023-02-14T01:30:57;101032.41;;;1.79;90.40
12203;BME280;6164;42.178;24.622;2023-02-14T01:33:23;101037.78;;;1.93;90.17
12203;BME280;6164;42.178;24.622;2023-02-14T01:35:49;101043.44;;;2.01;88.89
12203;BME280;6164;42.178;24.622;2023-02-14T01:38:16;101046.03;;;2.01;88.21
12203;BME280;6164;42.178;24.622;2023-02-14T01:40:43;101051.69;;;2.09;87.62
12203;BME280;6164;42.178;24.622;2023-02-14T01:43:12;101047.97;;;2.13;87.16
12203;BME280;6164;42.178;24.622;2023-02-14T01:45:40;101048.91;;;2.12;86.54
12203;BME280;6164;42.178;24.622;2023-02-14T01:48:08;101038.56;;;2.10;86.56
12203;BME280;6164;42.178;24.622;2023-02-14T01:50:36;101044.94;;;2.05;86.49
12203;BME280;6164;42.178;24.622;2023-02-14T01:53:04;101041.00;;;2.13;85.82
12203;BME280;6164;42.178;24.622;2023-02-14T01:55:32;101042.03;;;2.11;86.20
12203;BME280;6164;42.178;24.622;2023-02-14T01:58:02;101029.00;;;2.11;85.58
12203;BME280;6164;42.178;24.622;2023-02-14T02:00:30;101007.47;;;2.07;85.59
12203;BME280;6164;42.178;24.622;2023-02-14T02:03:15;101011.84;;;2.07;86.16
12203;BME280;6164;42.178;24.622;2023-02-14T02:05:43;101009.31;;;2.05;86.00
12203;BME280;6164;42.178;24.622;2023-02-14T02:08:12;101008.38;;;2.06;85.92
12203;BME280;6164;42.178;24.622;2023-02-14T02:10:39;101009.56;;;2.01;85.47
12203;BME280;6164;42.178;24.622;2023-02-14T02:13:07;101004.34;;;2.01;85.13
12203;BME280;6164;42.178;24.622;2023-02-14T02:15:34;101008.88;;;1.97;85.65
12203;BME280;6164;42.178;24.622;2023-02-14T02:18:06;101011.88;;;1.90;85.71
12203;BME280;6164;42.178;24.622;2023-02-14T02:23:49;101010.97;;;1.91;85.75
12203;BME280;6164;42.178;24.622;2023-02-14T02:29:08;101001.31;;;1.93;84.04
12203;BME280;6164;42.178;24.622;2023-02-14T02:34:26;100990.22;;;1.89;82.99
12203;BME280;6164;42.178;24.622;2023-02-14T02:37:02;100992.06;;;1.87;83.22
12203;BME280;6164;42.178;24.622;2023-02-14T02:39:40;100988.50;;;1.88;82.48
12203;BME280;6164;42.178;24.622;2023-02-14T02:42:15;100998.94;;;1.88;82.29
12203;BME280;6164;42.178;24.622;2023-02-14T02:44:48;101002.31;;;1.90;82.66
12203;BME280;6164;42.178;24.622;2023-02-14T02:47:18;100985.00;;;1.89;82.83
12203;BME280;6164;42.178;24.622;2023-02-14T02:49:50;101002.97;;;1.94;82.96
12203;BME280;6164;42.178;24.622;2023-02-14T02:52:38;100993.56;;;1.91;83.33
12203;BME280;6164;42.178;24.622;2023-02-14T02:55:26;100998.09;;;1.88;82.81
12203;BME280;6164;42.178;24.622;2023-02-14T02:58:16;100988.16;;;1.79;83.53
12203;BME280;6164;42.178;24.622;2023-02-14T03:00:42;100975.38;;;1.74;84.07
12203;BME280;6164;42.178;24.622;2023-02-14T03:03:08;100979.97;;;1.69;84.80
12203;BME280;6164;42.178;24.622;2023-02-14T03:05:53;100977.38;;;1.52;86.14
12203;BME280;6164;42.178;24.622;2023-02-14T03:08:21;100981.19;;;1.62;86.22
12203;BME280;6164;42.178;24.622;2023-02-14T03:10:50;100977.84;;;1.60;87.06
12203;BME280;6164;42.178;24.622;2023-02-14T03:13:23;100975.38;;;1.57;86.90
12203;BME280;6164;42.178;24.622;2023-02-14T03:15:52;100971.13;;;1.56;87.45
12203;BME280;6164;42.178;24.622;2023-02-14T03:18:25;100976.53;;;1.52;88.03
12203;BME280;6164;42.178;24.622;2023-02-14T03:21:18;100967.91;;;1.51;88.89
12203;BME280;6164;42.178;24.622;2023-02-14T03:23:49;100971.19;;;1.55;89.32
12203;BME280;6164;42.178;24.622;2023-02-14T03:26:20;100957.41;;;1.35;89.31
12203;BME280;6164;42.178;24.622;2023-02-14T03:28:51;100954.53;;;1.42;89.60
12203;BME280;6164;42.178;24.622;2023-02-14T03:31:22;100951.97;;;1.40;89.91
12203;BME280;6164;42.178;24.622;2023-02-14T03:33:53;100953.34;;;1.47;90.04
12203;BME280;6164;42.178;24.622;2023-02-14T03:36:23;100953.19;;;1.50;90.66
12203;BME280;6164;42.178;24.622;2023-02-14T03:38:53;100957.59;;;1.50;90.69
12203;BME280;6164;42.178;24.622;2023-02-14T03:41:23;100960.63;;;1.58;90.90
12203;BME280;6164;42.178;24.622;2023-02-14T03:43:52;100960.81;;;1.70;91.12
12203;BME280;6164;42.178;24.622;2023-02-14T03:46:21;100967.66;;;1.73;89.88
12203;BME280;6164;42.178;24.622;2023-02-14T03:48:51;100969.16;;;1.77;90.24
12203;BME280;6164;42.178;24.622;2023-02-14T03:51:20;100956.38;;;1.72;90.24
12203;BME280;6164;42.178;24.622;2023-02-14T03:53:49;100951.88;;;1.76;90.35
12203;BME280;6164;42.178;24.622;2023-02-14T03:56:21;100960.44;;;1.78;89.59
12203;BME280;6164;42.178;24.622;2023-02-14T03:58:52;100974.19;;;1.80;88.84
12203;BME280;6164;42.178;24.622;2023-02-14T04:01:22;100971.00;;;1.75;87.98
12203;BME280;6164;42.178;24.622;2023-02-14T04:03:50;100971.94;;;1.74;87.99
12203;BME280;6164;42.178;24.622;2023-02-14T04:06:18;100971.16;;;1.72;87.74
12203;BME280;6164;42.178;24.622;2023-02-14T04:08:45;100958.81;;;1.75;87.73
12203;BME280;6164;42.178;24.622;2023-02-14T04:11:11;100945.81;;;1.75;87.28
12203;BME280;6164;42.178;24.622;2023-02-14T04:13:39;100940.09;;;1.69;87.36
12203;BME280;6164;42.178;24.622;2023-02-14T04:16:06;100932.97;;;1.72;87.77
12203;BME280;6164;42.178;24.622;2023-02-14T04:18:32;100922.88;;;1.66;88.24
12203;BME280;6164;42.178;24.622;2023-02-14T04:21:19;100925.22;;;1.71;88.11
12203;BME280;6164;42.178;24.622;2023-02-14T04:23:46;100923.41;;;1.73;88.56
12203;BME280;6164;42.178;24.622;2023-02-14T04:26:12;100920.78;;;1.73;87.39
12203;BME280;6164;42.178;24.622;2023-02-14T04:28:40;100923.31;;;1.74;86.39
12203;BME280;6164;42.178;24.622;2023-02-14T04:31:07;100920.78;;;1.73;85.63
12203;BME280;6164;42.178;24.622;2023-02-14T04:33:34;100919.78;;;1.75;84.87
12203;BME280;6164;42.178;24.622;2023-02-14T04:36:00;100924.69;;;1.81;83.77
12203;BME280;6164;42.178;24.622;2023-02-14T04:38:27;100933.22;;;1.83;82.54
12203;BME280;6164;42.178;24.622;2023-02-14T04:40:53;100920.47;;;1.79;82.21
12203;BME280;6164;42.178;24.622;2023-02-14T04:43:20;100919.91;;;1.89;81.50
12203;BME280;6164;42.178;24.622;2023-02-14T04:45:48;100912.22;;;1.86;81.35
12203;BME280;6164;42.178;24.622;2023-02-14T04:48:14;100907.78;;;1.88;80.80
12203;BME280;6164;42.178;24.622;2023-02-14T04:50:41;100906.88;;;1.89;80.81
12203;BME280;6164;42.178;24.622;2023-02-14T04:53:07;100903.19;;;1.93;80.65
12203;BME280;6164;42.178;24.622;2023-02-14T04:55:34;100896.03;;;1.81;81.16
12203;BME280;6164;42.178;24.622;2023-02-14T04:58:00;100886.06;;;1.89;81.30
12203;BME280;6164;42.178;24.622;2023-02-14T05:00:27;100880.00;;;1.89;81.13
12203;BME280;6164;42.178;24.622;2023-02-14T05:02:54;100874.78;;;1.89;81.57
12203;BME280;6164;42.178;24.622;2023-02-14T05:05:21;100875.84;;;1.85;81.29
12203;BME280;6164;42.178;24.622;2023-02-14T05:07:47;100879.31;;;1.85;81.16
12203;BME280;6164;42.178;24.622;2023-02-14T05:10:14;100869.41;;;1.92;81.26
12203;BME280;6164;42.178;24.622;2023-02-14T05:12:40;100859.75;;;1.94;81.66
12203;BME280;6164;42.178;24.622;2023-02-14T05:15:07;100861.69;;;1.90;81.13
12203;BME280;6164;42.178;24.622;2023-02-14T05:17:34;100879.66;;;1.95;81.72
12203;BME280;6164;42.178;24.622;2023-02-14T05:20:02;100877.97;;;1.94;81.68
12203;BME280;6164;42.178;24.622;2023-02-14T05:22:29;100866.88;;;1.90;81.56
12203;BME280;6164;42.178;24.622;2023-02-14T05:24:56;100871.03;;;1.94;81.38
12203;BME280;6164;42.178;24.622;2023-02-14T05:27:22;100871.09;;;1.93;81.13
12203;BME280;6164;42.178;24.622;2023-02-14T05:29:49;100873.47;;;1.97;81.73
12203;BME280;6164;42.178;24.622;2023-02-14T05:32:15;100882.94;;;1.98;81.61
12203;BME280;6164;42.178;24.622;2023-02-14T05:34:42;100890.84;;;1.97;81.62
12203;BME280;6164;42.178;24.622;2023-02-14T05:37:10;100883.78;;;1.99;81.82
12203;BME280;6164;42.178;24.622;2023-02-14T05:39:36;100883.63;;;2.02;81.43
12203;BME280;6164;42.178;24.622;2023-02-14T05:42:03;100881.88;;;2.02;81.64
12203;BME280;6164;42.178;24.622;2023-02-14T05:44:29;100878.41;;;2.02;81.76
12203;BME280;6164;42.178;24.622;2023-02-14T05:46:55;100874.22;;;1.99;82.19
12203;BME280;6164;42.178;24.622;2023-02-14T05:49:22;100877.63;;;2.00;82.18
12203;BME280;6164;42.178;24.622;2023-02-14T05:51:48;100872.19;;;2.04;82.42
12203;BME280;6164;42.178;24.622;2023-02-14T05:54:16;100870.75;;;2.14;82.02
12203;BME280;6164;42.178;24.622;2023-02-14T05:56:43;100875.16;;;2.14;81.43
12203;BME280;6164;42.178;24.622;2023-02-14T05:59:09;100866.91;;;2.21;81.48
12203;BME280;6164;42.178;24.622;2023-02-14T06:01:38;100863.03;;;2.28;81.22
12203;BME280;6164;42.178;24.622;2023-02-14T06:04:04;100868.81;;;2.33;81.64
12203;BME280;6164;42.178;24.622;2023-02-14T06:06:31;100880.84;;;2.36;81.67
12203;BME280;6164;42.178;24.622;2023-02-14T06:08:57;100877.91;;;2.42;81.58
12203;BME280;6164;42.178;24.622;2023-02-14T06:11:25;100881.81;;;2.49;81.26
12203;BME280;6164;42.178;24.622;2023-02-14T06:13:52;100885.34;;;2.63;80.66
12203;BME280;6164;42.178;24.622;2023-02-14T06:16:18;100883.72;;;2.77;80.12
12203;BME280;6164;42.178;24.622;2023-02-14T06:18:44;100885.13;;;2.82;79.58
12203;BME280;6164;42.178;24.622;2023-02-14T06:21:11;100888.88;;;2.92;79.08
12203;BME280;6164;42.178;24.622;2023-02-14T06:23:37;100894.59;;;2.99;79.28
12203;BME280;6164;42.178;24.622;2023-02-14T06:26:04;100894.47;;;3.16;78.92
12203;BME280;6164;42.178;24.622;2023-02-14T06:28:32;100883.94;;;3.17;78.36
12203;BME280;6164;42.178;24.622;2023-02-14T06:30:58;100890.19;;;3.29;78.39
12203;BME280;6164;42.178;24.622;2023-02-14T06:33:25;100887.59;;;3.43;77.71
12203;BME280;6164;42.178;24.622;2023-02-14T06:35:52;100889.47;;;3.55;77.46
12203;BME280;6164;42.178;24.622;2023-02-14T06:38:18;100889.41;;;3.70;76.86
12203;BME280;6164;42.178;24.622;2023-02-14T06:40:45;100894.59;;;3.84;76.38
12203;BME280;6164;42.178;24.622;2023-02-14T06:43:11;100890.38;;;3.96;76.38
12203;BME280;6164;42.178;24.622;2023-02-14T06:45:39;100897.47;;;4.08;75.42
12203;BME280;6164;42.178;24.622;2023-02-14T06:48:07;100902.75;;;4.21;75.17
12203;BME280;6164;42.178;24.622;2023-02-14T06:50:34;100912.34;;;4.34;75.21
12203;BME280;6164;42.178;24.622;2023-02-14T06:53:00;100911.75;;;4.43;74.48
12203;BME280;6164;42.178;24.622;2023-02-14T06:55:27;100914.44;;;4.56;74.27
12203;BME280;6164;42.178;24.622;2023-02-14T06:57:54;100899.75;;;4.67;74.05
12203;BME280;6164;42.178;24.622;2023-02-14T07:00:20;100912.53;;;4.84;72.91
12203;BME280;6164;42.178;24.622;2023-02-14T07:02:48;100906.81;;;4.92;72.18
12203;BME280;6164;42.178;24.622;2023-02-14T07:05:15;100909.56;;;5.03;72.51
12203;BME280;6164;42.178;24.622;2023-02-14T07:07:43;100891.19;;;5.17;73.14
12203;BME280;6164;42.178;24.622;2023-02-14T07:10:09;100901.56;;;5.31;73.51
12203;BME280;6164;42.178;24.622;2023-02-14T07:12:36;100901.38;;;5.47;73.58
12203;BME280;6164;42.178;24.622;2023-02-14T07:15:03;100891.94;;;5.57;73.07
12203;BME280;6164;42.178;24.622;2023-02-14T07:17:30;100890.44;;;5.65;72.33
12203;BME280;6164;42.178;24.622;2023-02-14T07:19:58;100899.88;;;5.80;72.29
12203;BME280;6164;42.178;24.622;2023-02-14T07:22:24;100899.41;;;5.88;71.92
12203;BME280;6164;42.178;24.622;2023-02-14T07:24:51;100905.78;;;5.96;72.49
12203;BME280;6164;42.178;24.622;2023-02-14T07:27:17;100901.75;;;6.03;72.56
12203;BME280;6164;42.178;24.622;2023-02-14T07:29:44;100895.38;;;6.07;72.08
12203;BME280;6164;42.178;24.622;2023-02-14T07:32:10;100892.31;;;6.13;71.97
12203;BME280;6164;42.178;24.622;2023-02-14T07:34:37;100894.28;;;6.22;71.08
12203;BME280;6164;42.178;24.622;2023-02-14T07:37:05;100893.00;;;6.28;71.08
12203;BME280;6164;42.178;24.622;2023-02-14T07:39:31;100889.63;;;6.38;70.57
12203;BME280;6164;42.178;24.622;2023-02-14T07:41:58;100889.06;;;6.46;70.37
12203;BME280;6164;42.178;24.622;2023-02-14T07:44:24;100901.00;;;6.50;69.58
12203;BME280;6164;42.178;24.622;2023-02-14T07:46:51;100892.66;;;6.68;70.39
12203;BME280;6164;42.178;24.622;2023-02-14T07:49:17;100904.56;;;6.72;69.46
12203;BME280;6164;42.178;24.622;2023-02-14T07:51:44;100912.09;;;6.77;67.55
12203;BME280;6164;42.178;24.622;2023-02-14T07:54:11;100913.22;;;6.86;67.59
12203;BME280;6164;42.178;24.622;2023-02-14T07:56:38;100925.69;;;6.95;67.48
12203;BME280;6164;42.178;24.622;2023-02-14T07:59:04;100905.63;;;6.94;67.15
12203;BME280;6164;42.178;24.622;2023-02-14T08:01:31;100911.31;;;7.11;67.39
12203;BME280;6164;42.178;24.622;2023-02-14T08:03:57;100904.44;;;7.21;66.80
12203;BME280;6164;42.178;24.622;2023-02-14T08:06:24;100911.34;;;7.33;65.92
12203;BME280;6164;42.178;24.622;2023-02-14T08:08:52;100903.84;;;7.29;65.67
12203;BME280;6164;42.178;24.622;2023-02-14T08:11:19;100914.72;;;7.46;65.93
12203;BME280;6164;42.178;24.622;2023-02-14T08:14:03;100922.06;;;7.54;65.22
12203;BME280;6164;42.178;24.622;2023-02-14T08:16:30;100946.06;;;7.60;64.44
12203;BME280;6164;42.178;24.622;2023-02-14T08:18:58;100940.47;;;7.65;64.06
12203;BME280;6164;42.178;24.622;2023-02-14T08:21:25;100961.84;;;7.71;63.76
12203;BME280;6164;42.178;24.622;2023-02-14T08:23:51;100944.44;;;7.81;64.08
12203;BME280;6164;42.178;24.622;2023-02-14T08:26:19;100948.72;;;7.82;63.49
12203;BME280;6164;42.178;24.622;2023-02-14T08:28:46;100953.53;;;7.99;63.50
12203;BME280;6164;42.178;24.622;2023-02-14T08:31:19;100943.00;;;8.22;63.79
12203;BME280;6164;42.178;24.622;2023-02-14T08:33:46;100976.53;;;8.42;62.09
12203;BME280;6164;42.178;24.622;2023-02-14T08:36:13;100992.66;;;8.37;61.12
12203;BME280;6164;42.178;24.622;2023-02-14T08:38:41;100983.56;;;8.41;60.80
12203;BME280;6164;42.178;24.622;2023-02-14T08:41:09;101002.84;;;8.42;60.18
12203;BME280;6164;42.178;24.622;2023-02-14T08:43:37;101029.72;;;8.45;59.49
12203;BME280;6164;42.178;24.622;2023-02-14T08:46:03;101007.47;;;8.49;59.77
12203;BME280;6164;42.178;24.622;2023-02-14T08:48:30;101024.72;;;8.53;59.38
12203;BME280;6164;42.178;24.622;2023-02-14T08:50:56;101041.94;;;8.57;58.75
12203;BME280;6164;42.178;24.622;2023-02-14T08:53:23;101025.53;;;8.76;58.74
12203;BME280;6164;42.178;24.622;2023-02-14T08:55:49;101029.94;;;8.75;59.06
12203;BME280;6164;42.178;24.622;2023-02-14T08:58:16;101026.47;;;8.75;57.80
12203;BME280;6164;42.178;24.622;2023-02-14T09:00:44;101015.56;;;8.90;58.36
12203;BME280;6164;42.178;24.622;2023-02-14T09:03:11;101018.03;;;9.03;57.74
12203;BME280;6164;42.178;24.622;2023-02-14T09:05:37;101029.97;;;9.18;57.40
12203;BME280;6164;42.178;24.622;2023-02-14T09:08:04;101020.19;;;9.09;57.30
12203;BME280;6164;42.178;24.622;2023-02-14T09:10:31;101010.25;;;9.12;57.76
12203;BME280;6164;42.178;24.622;2023-02-14T09:12:58;101026.41;;;9.19;57.22
12203;BME280;6164;42.178;24.622;2023-02-14T09:15:24;101019.44;;;9.18;56.84
12203;BME280;6164;42.178;24.622;2023-02-14T09:17:52;101015.84;;;9.19;57.02
12203;BME280;6164;42.178;24.622;2023-02-14T09:20:19;101016.13;;;9.37;57.15
12203;BME280;6164;42.178;24.622;2023-02-14T09:22:45;101004.59;;;9.49;57.39
12203;BME280;6164;42.178;24.622;2023-02-14T09:25:12;101023.13;;;9.26;56.08
12203;BME280;6164;42.178;24.622;2023-02-14T09:27:38;101031.69;;;9.40;56.00
12203;BME280;6164;42.178;24.622;2023-02-14T09:30:06;101023.72;;;9.51;55.72
12203;BME280;6164;42.178;24.622;2023-02-14T09:32:33;101010.25;;;9.65;55.54
12203;BME280;6164;42.178;24.622;2023-02-14T09:35:01;101023.81;;;9.60;55.20
12203;BME280;6164;42.178;24.622;2023-02-14T09:37:45;101025.69;;;9.69;54.75
12203;BME280;6164;42.178;24.622;2023-02-14T09:40:28;101075.63;;;9.82;52.75
12203;BME280;6164;42.178;24.622;2023-02-14T09:43:01;101059.72;;;9.93;53.98
12203;BME280;6164;42.178;24.622;2023-02-14T09:45:32;101066.03;;;9.81;53.88
12203;BME280;6164;42.178;24.622;2023-02-14T09:48:00;101053.28;;;9.86;53.90
12203;BME280;6164;42.178;24.622;2023-02-14T09:50:30;101086.66;;;9.76;53.58
12203;BME280;6164;42.178;24.622;2023-02-14T09:52:59;101071.44;;;9.79;53.77
12203;BME280;6164;42.178;24.622;2023-02-14T09:55:40;101028.91;;;9.93;55.06
12203;BME280;6164;42.178;24.622;2023-02-14T09:58:11;101031.72;;;9.81;54.66
12203;BME280;6164;42.178;24.622;2023-02-14T10:00:41;101024.72;;;9.91;54.70
12203;BME280;6164;42.178;24.622;2023-02-14T10:03:17;101032.69;;;10.00;55.06
12203;BME280;6164;42.178;24.622;2023-02-14T10:05:52;101014.81;;;10.04;54.84
12203;BME280;6164;42.178;24.622;2023-02-14T10:08:24;101004.50;;;10.21;54.96
12203;BME280;6164;42.178;24.622;2023-02-14T10:10:56;101009.38;;;10.16;54.50
12203;BME280;6164;42.178;24.622;2023-02-14T10:13:26;101014.88;;;9.93;54.07
12203;BME280;6164;42.178;24.622;2023-02-14T10:15:57;101005.81;;;9.86;54.16
12203;BME280;6164;42.178;24.622;2023-02-14T10:18:25;101011.13;;;9.95;53.73
12203;BME280;6164;42.178;24.622;2023-02-14T10:20:55;101005.34;;;10.01;53.43
12203;BME280;6164;42.178;24.622;2023-02-14T10:23:25;101009.66;;;10.02;54.04
12203;BME280;6164;42.178;24.622;2023-02-14T10:25:53;101024.94;;;9.78;53.18
12203;BME280;6164;42.178;24.622;2023-02-14T10:28:23;100997.38;;;9.92;53.84
12203;BME280;6164;42.178;24.622;2023-02-14T10:30:53;101027.22;;;9.92;53.25
12203;BME280;6164;42.178;24.622;2023-02-14T10:33:21;101029.59;;;9.95;53.62
12203;BME280;6164;42.178;24.622;2023-02-14T10:35:54;101022.47;;;9.86;53.10
12203;BME280;6164;42.178;24.622;2023-02-14T10:38:27;101009.91;;;9.79;53.33
12203;BME280;6164;42.178;24.622;2023-02-14T10:41:20;101005.69;;;9.87;53.98
12203;BME280;6164;42.178;24.622;2023-02-14T10:43:50;100972.94;;;9.90;54.22
12203;BME280;6164;42.178;24.622;2023-02-14T10:46:22;100985.16;;;9.91;53.73
12203;BME280;6164;42.178;24.622;2023-02-14T10:49:01;100976.97;;;9.94;53.95
12203;BME280;6164;42.178;24.622;2023-02-14T10:51:34;100983.69;;;9.98;53.61
12203;BME280;6164;42.178;24.622;2023-02-14T10:54:10;100972.22;;;10.08;53.53
12203;BME280;6164;42.178;24.622;2023-02-14T10:56:42;100968.63;;;10.09;53.89
12203;BME280;6164;42.178;24.622;2023-02-14T10:59:13;100947.25;;;10.12;53.82
12203;BME280;6164;42.178;24.622;2023-02-14T11:01:43;100948.44;;;10.29;53.31
12203;BME280;6164;42.178;24.622;2023-02-14T11:04:10;100965.84;;;10.41;53.54
12203;BME280;6164;42.178;24.622;2023-02-14T11:06:38;100971.50;;;10.36;52.66
12203;BME280;6164;42.178;24.622;2023-02-14T11:09:04;100960.72;;;10.09;53.09
12203;BME280;6164;42.178;24.622;2023-02-14T11:11:34;100956.03;;;10.22;53.94
12203;BME280;6164;42.178;24.622;2023-02-14T11:14:09;100958.50;;;10.14;54.29
12203;BME280;6164;42.178;24.622;2023-02-14T11:16:43;100941.56;;;10.17;54.78
12203;BME280;6164;42.178;24.622;2023-02-14T11:19:17;100892.91;;;10.10;54.99
12203;BME280;6164;42.178;24.622;2023-02-14T11:21:45;100902.81;;;10.08;54.69
12203;BME280;6164;42.178;24.622;2023-02-14T11:24:21;100897.75;;;10.05;54.07
12203;BME280;6164;42.178;24.622;2023-02-14T11:26:52;100904.78;;;10.25;54.09
12203;BME280;6164;42.178;24.622;2023-02-14T11:29:21;100904.91;;;10.23;54.07
12203;BME280;6164;42.178;24.622;2023-02-14T11:31:52;100888.28;;;10.32;54.94
12203;BME280;6164;42.178;24.622;2023-02-14T11:34:22;100881.63;;;10.38;54.83
12203;BME280;6164;42.178;24.622;2023-02-14T11:36:49;100940.63;;;10.18;53.98
12203;BME280;6164;42.178;24.622;2023-02-14T11:39:17;100881.69;;;10.08;55.09
12203;BME280;6164;42.178;24.622;2023-02-14T11:41:48;100890.22;;;10.00;54.95
12203;BME280;6164;42.178;24.622;2023-02-14T11:44:16;100887.66;;;10.10;53.97
12203;BME280;6164;42.178;24.622;2023-02-14T11:46:46;100874.13;;;10.03;54.60
12203;BME280;6164;42.178;24.622;2023-02-14T11:49:21;100886.72;;;10.30;54.33
12203;BME280;6164;42.178;24.622;2023-02-14T11:51:51;100873.44;;;10.41;54.06
12203;BME280;6164;42.178;24.622;2023-02-14T11:54:23;100906.50;;;10.05;53.56
12203;BME280;6164;42.178;24.622;2023-02-14T11:56:51;100882.72;;;10.26;54.01
12203;BME280;6164;42.178;24.622;2023-02-14T11:59:26;100899.78;;;10.22;54.05
12203;BME280;6164;42.178;24.622;2023-02-14T12:01:56;100879.94;;;10.27;53.86
12203;BME280;6164;42.178;24.622;2023-02-14T12:04:26;100884.94;;;10.30;53.81
12203;BME280;6164;42.178;24.622;2023-02-14T12:06:59;100876.09;;;10.41;53.13
12203;BME280;6164;42.178;24.622;2023-02-14T12:09:37;100889.78;;;10.25;52.85
12203;BME280;6164;42.178;24.622;2023-02-14T12:12:14;100894.94;;;10.36;52.57
12203;BME280;6164;42.178;24.622;2023-02-14T12:14:43;100884.94;;;10.30;52.52
12203;BME280;6164;42.178;24.622;2023-02-14T12:17:12;100874.81;;;10.26;52.71
12203;BME280;6164;42.178;24.622;2023-02-14T12:19:41;100916.88;;;10.18;52.09
12203;BME280;6164;42.178;24.622;2023-02-14T12:22:10;100888.00;;;10.35;52.84
12203;BME280;6164;42.178;24.622;2023-02-14T12:24:39;100896.38;;;10.40;52.38
12203;BME280;6164;42.178;24.622;2023-02-14T12:27:15;100905.34;;;10.28;51.83
12203;BME280;6164;42.178;24.622;2023-02-14T12:29:46;100919.69;;;10.35;52.75
12203;BME280;6164;42.178;24.622;2023-02-14T12:32:19;100899.13;;;10.39;52.61
12203;BME280;6164;42.178;24.622;2023-02-14T12:34:46;100896.66;;;10.47;52.36
12203;BME280;6164;42.178;24.622;2023-02-14T12:37:15;100898.16;;;10.40;52.69
12203;BME280;6164;42.178;24.622;2023-02-14T12:39:47;100897.72;;;10.25;52.33
12203;BME280;6164;42.178;24.622;2023-02-14T12:42:24;100869.25;;;10.38;53.00
12203;BME280;6164;42.178;24.622;2023-02-14T12:45:01;100862.59;;;10.44;52.53
12203;BME280;6164;42.178;24.622;2023-02-14T12:47:31;100877.72;;;10.23;52.61
12203;BME280;6164;42.178;24.622;2023-02-14T12:50:08;100877.28;;;10.18;52.94
12203;BME280;6164;42.178;24.622;2023-02-14T12:58:08;100862.19;;;10.39;52.68
12203;BME280;6164;42.178;24.622;2023-02-14T13:00:42;100861.16;;;10.21;53.33
12203;BME280;6164;42.178;24.622;2023-02-14T13:03:25;100863.13;;;10.38;52.88
12203;BME280;6164;42.178;24.622;2023-02-14T13:05:57;100887.31;;;10.33;52.57
12203;BME280;6164;42.178;24.622;2023-02-14T13:08:30;100870.53;;;10.34;52.65
12203;BME280;6164;42.178;24.622;2023-02-14T13:11:00;100869.88;;;10.12;52.56
12203;BME280;6164;42.178;24.622;2023-02-14T13:13:32;100878.44;;;10.04;53.24
12203;BME280;6164;42.178;24.622;2023-02-14T13:16:06;100867.44;;;9.60;53.45
12203;BME280;6164;42.178;24.622;2023-02-14T13:18:36;100855.53;;;9.65;54.15
12203;BME280;6164;42.178;24.622;2023-02-14T13:21:05;100833.00;;;9.61;54.49
12203;BME280;6164;42.178;24.622;2023-02-14T13:23:34;100816.78;;;9.66;54.60